createdAt,value
2023-10-29T00:00:32.926Z,3.42
2023-10-29T00:04:38.499Z,4.38
2023-10-29T00:08:41.400Z,3.88
2023-10-29T00:12:45.153Z,3.67
2023-10-29T00:16:48.034Z,3.67
2023-10-29T00:20:50.910Z,4.25
2023-10-29T00:24:53.735Z,4.35
2023-10-29T00:28:56.638Z,4.07
2023-10-29T00:33:00.028Z,3.97
2023-10-29T00:37:04.218Z,4.32
2023-10-29T00:41:07.095Z,4.15
2023-10-29T00:45:11.248Z,4.30
2023-10-29T00:49:14.508Z,3.17
2023-10-29T00:53:17.471Z,3.85
2023-10-29T00:57:20.987Z,4.25
2023-10-29T01:01:24.132Z,4.25
2023-10-29T01:05:27.094Z,3.80
2023-10-29T01:09:30.614Z,3.88
2023-10-29T01:13:34.784Z,3.80
2023-10-29T01:17:37.960Z,4.20
2023-10-29T01:21:40.747Z,3.55
2023-10-29T01:25:44.829Z,3.85
2023-10-29T01:29:47.707Z,3.30
2023-10-29T01:33:50.556Z,3.63
2023-10-29T01:37:53.664Z,4.00
2023-10-29T01:41:59.298Z,3.65
2023-10-29T01:46:02.324Z,3.65
2023-10-29T01:50:05.861Z,3.17
2023-10-29T01:54:08.731Z,3.40
2023-10-29T01:58:11.825Z,3.35
2023-10-29T02:02:14.692Z,3.45
2023-10-29T02:06:21.016Z,3.70
2023-10-29T02:10:26.779Z,4.28
2023-10-29T02:14:33.897Z,3.85
2023-10-29T02:18:38.365Z,3.70
2023-10-29T02:22:41.826Z,3.42
2023-10-29T02:26:45.321Z,3.65
2023-10-29T02:30:48.172Z,3.85
2023-10-29T02:34:51.009Z,3.33
2023-10-29T02:38:54.002Z,4.38
2023-10-29T02:42:56.943Z,3.83
2023-10-29T02:46:59.844Z,4.10
2023-10-29T02:51:03.947Z,3.55
2023-10-29T02:55:08.522Z,4.05
2023-10-29T02:59:14.569Z,4.55
2023-10-29T03:03:17.669Z,4.15
2023-10-29T03:07:21.344Z,4.28
2023-10-29T03:11:24.334Z,4.28
2023-10-29T03:15:27.928Z,3.92
2023-10-29T03:19:31.326Z,5.07
2023-10-29T03:23:35.184Z,4.82
2023-10-29T03:27:39.011Z,4.28
2023-10-29T03:31:41.872Z,5.18
2023-10-29T03:35:44.651Z,4.30
2023-10-29T03:39:47.546Z,4.20
2023-10-29T03:43:50.830Z,4.68
2023-10-29T03:47:55.370Z,4.38
2023-10-29T03:51:58.222Z,3.80
2023-10-29T03:56:02.148Z,4.43
2023-10-29T04:00:07.996Z,4.30
2023-10-29T04:04:16.684Z,3.88
2023-10-29T04:08:19.497Z,4.40
2023-10-29T04:12:22.241Z,4.15
2023-10-29T04:16:24.990Z,3.97
2023-10-29T04:20:28.802Z,3.35
2023-10-29T04:24:32.677Z,4.38
2023-10-29T04:28:35.540Z,4.18
2023-10-29T04:32:38.352Z,3.67
2023-10-29T04:36:43.573Z,3.17
2023-10-29T04:40:46.937Z,4.20
2023-10-29T04:44:49.965Z,3.10
2023-10-29T04:48:52.970Z,3.08
2023-10-29T04:52:55.811Z,3.80
2023-10-29T04:56:58.637Z,3.08
2023-10-29T05:01:02.792Z,3.33
2023-10-29T05:05:07.948Z,3.30
2023-10-29T05:09:11.973Z,3.20
2023-10-29T05:13:14.929Z,4.47
2023-10-29T05:17:17.764Z,3.63
2023-10-29T05:21:21.946Z,3.30
2023-10-29T05:25:24.974Z,3.53
2023-10-29T05:29:28.886Z,3.90
2023-10-29T05:33:32.886Z,4.15
2023-10-29T05:37:36.870Z,3.03
2023-10-29T05:41:39.967Z,3.10
2023-10-29T05:45:44.054Z,3.85
2023-10-29T05:49:47.945Z,3.60
2023-10-29T05:53:51.168Z,4.38
2023-10-29T05:57:57.528Z,3.53
2023-10-29T06:02:01.245Z,3.67
2023-10-29T06:06:04.378Z,4.53
2023-10-29T06:10:07.928Z,5.40
2023-10-29T06:14:10.773Z,5.70
2023-10-29T06:18:18.790Z,5.30
2023-10-29T06:22:23.284Z,6.00
2023-10-29T06:26:26.019Z,6.18
2023-10-29T06:30:31.563Z,6.35
2023-10-29T06:34:34.422Z,4.78
2023-10-29T06:38:37.853Z,5.60
2023-10-29T06:42:40.749Z,5.68
2023-10-29T06:46:44.216Z,5.90
2023-10-29T06:50:47.332Z,6.10
2023-10-29T06:54:51.782Z,6.28
2023-10-29T06:58:57.293Z,6.82
2023-10-29T07:03:02.720Z,6.43
2023-10-29T07:07:07.200Z,6.50
2023-10-29T07:11:10.604Z,6.43
2023-10-29T07:15:13.529Z,6.68
2023-10-29T07:19:22.265Z,7.40
2023-10-29T07:23:25.440Z,6.85
2023-10-29T07:27:29.302Z,7.47
2023-10-29T07:31:32.260Z,7.05
2023-10-29T07:35:39.833Z,9.18
2023-10-29T07:39:48.043Z,8.85
2023-10-29T07:43:50.959Z,7.97
2023-10-29T07:47:55.802Z,8.85
2023-10-29T07:51:59.805Z,8.60
2023-10-29T07:56:13.176Z,8.45
2023-10-29T08:00:18.059Z,8.10
2023-10-29T08:04:20.778Z,9.00
2023-10-29T08:08:24.378Z,9.52
2023-10-29T08:12:28.313Z,8.68
2023-10-29T08:16:32.080Z,9.13
2023-10-29T08:20:36.262Z,10.48
2023-10-29T08:24:45.139Z,10.95
2023-10-29T08:28:49.499Z,11.20
2023-10-29T08:32:52.891Z,12.80
2023-10-29T08:36:58.942Z,14.00
2023-10-29T08:41:06.092Z,14.77
2023-10-29T08:45:09.572Z,16.85
2023-10-29T08:49:12.849Z,19.20
2023-10-29T08:53:16.077Z,17.38
2023-10-29T08:57:21.208Z,19.00
2023-10-29T09:01:24.076Z,20.23
2023-10-29T09:05:26.999Z,23.25
2023-10-29T09:09:29.838Z,23.65
2023-10-29T09:13:33.798Z,25.88
2023-10-29T09:17:43.046Z,31.35
2023-10-29T09:21:47.159Z,31.23
2023-10-29T09:25:51.400Z,34.08
2023-10-29T09:30:00.476Z,32.13
2023-10-29T09:34:16.287Z,29.40
2023-10-29T09:38:26.062Z,30.40
2023-10-29T09:42:35.509Z,31.80
2023-10-29T09:46:38.611Z,30.67
2023-10-29T09:50:44.711Z,30.27
2023-10-29T09:54:51.194Z,28.65
2023-10-29T09:58:54.179Z,25.52
2023-10-29T10:02:59.007Z,23.83
2023-10-29T10:07:04.304Z,23.85
2023-10-29T10:11:22.400Z,25.98
2023-10-29T10:15:25.575Z,10.75
2023-10-29T10:19:28.546Z,6.68
2023-10-29T10:23:50.606Z,5.25
2023-10-29T10:27:55.323Z,3.60
2023-10-29T10:32:03.951Z,4.22
2023-10-29T10:36:07.713Z,5.30
2023-10-29T10:40:23.865Z,4.55
2023-10-29T10:44:27.860Z,5.50
2023-10-29T10:48:33.083Z,4.72
2023-10-29T10:52:36.404Z,5.35
2023-10-29T10:56:39.565Z,5.13
2023-10-29T11:00:42.659Z,6.10
2023-10-29T11:04:47.696Z,4.60
2023-10-29T11:08:53.195Z,4.10
2023-10-29T11:12:57.377Z,3.53
2023-10-29T11:17:07.432Z,3.25
2023-10-29T11:21:39.532Z,2.70
2023-10-29T11:25:44.317Z,2.90
2023-10-29T11:33:57.382Z,3.80
2023-10-29T11:38:07.975Z,3.85
2023-10-29T11:42:28.611Z,2.67
2023-10-29T11:47:03.324Z,2.85
2023-10-29T11:51:13.438Z,2.38
2023-10-29T11:55:31.183Z,2.50
2023-10-29T11:59:55.029Z,2.40
2023-10-29T12:04:06.878Z,2.78
2023-10-29T12:08:15.911Z,2.42
2023-10-29T12:12:27.520Z,2.90
2023-10-29T12:17:18.246Z,2.67
2023-10-29T12:21:25.427Z,3.47
2023-10-29T12:25:29.414Z,3.17
2023-10-29T12:29:42.394Z,3.53
2023-10-29T12:34:11.544Z,3.50
2023-10-29T12:38:40.446Z,3.22
2023-10-29T12:48:51.905Z,3.50
2023-10-29T12:53:36.244Z,2.75
2023-10-29T12:58:02.733Z,3.03
2023-10-29T13:02:35.998Z,2.70
2023-10-29T13:07:14.355Z,2.30
2023-10-29T13:11:24.744Z,2.30
2023-10-29T13:16:15.541Z,3.00
2023-10-29T13:20:47.291Z,2.47
2023-10-29T13:24:52.541Z,2.53
2023-10-29T13:29:00.169Z,2.58
2023-10-29T13:37:45.428Z,2.10
2023-10-29T13:41:50.201Z,2.72
2023-10-29T13:46:03.664Z,2.03
2023-10-29T13:50:07.345Z,1.55
2023-10-29T13:54:10.338Z,1.83
2023-10-29T13:58:13.317Z,1.75
2023-10-29T14:02:17.308Z,1.98
2023-10-29T14:06:22.532Z,1.58
2023-10-29T14:10:26.861Z,1.85
2023-10-29T14:14:31.432Z,1.77
2023-10-29T14:18:44.875Z,1.50
2023-10-29T14:22:54.957Z,2.42
2023-10-29T14:27:01.327Z,1.70
2023-10-29T14:31:33.614Z,2.03
2023-10-29T14:35:50.079Z,1.88
2023-10-29T14:40:05.074Z,2.17
2023-10-29T14:44:44.837Z,2.40
2023-10-29T14:49:23.631Z,1.90
2023-10-29T14:53:58.122Z,2.00
2023-10-29T14:58:06.852Z,1.70
2023-10-29T15:02:12.059Z,1.83
2023-10-29T15:06:22.212Z,1.80
2023-10-29T15:10:28.588Z,2.15
2023-10-29T15:19:22.158Z,1.83
2023-10-29T15:24:00.722Z,1.55
2023-10-29T15:28:03.859Z,2.00
2023-10-29T15:32:10.240Z,1.63
2023-10-29T15:36:19.766Z,2.42
2023-10-29T15:44:50.245Z,2.20
2023-10-29T15:48:57.718Z,2.22
2023-10-29T15:53:32.457Z,2.22
2023-10-29T15:57:59.697Z,3.10
2023-10-29T16:02:09.931Z,4.57
2023-10-29T16:06:15.662Z,4.32
2023-10-29T16:10:23.261Z,2.78
2023-10-29T16:14:26.886Z,4.50
2023-10-29T16:18:30.903Z,3.25
2023-10-29T16:22:52.570Z,2.10
2023-10-29T16:31:50.298Z,3.22
2023-10-29T16:35:56.699Z,2.70
2023-10-29T16:40:02.577Z,1.85
2023-10-29T16:44:08.661Z,2.10
2023-10-29T16:48:12.945Z,2.35
2023-10-29T16:52:19.689Z,1.83
2023-10-29T16:56:39.007Z,1.85
2023-10-29T17:00:42.116Z,1.73
2023-10-29T17:04:45.300Z,2.13
2023-10-29T17:08:54.578Z,1.88
2023-10-29T17:13:04.914Z,1.90
2023-10-29T17:17:17.195Z,2.88
2023-10-29T17:21:21.133Z,2.47
2023-10-29T17:25:24.389Z,1.80
2023-10-29T17:29:28.290Z,2.10
2023-10-29T17:34:00.162Z,1.60
2023-10-29T17:38:23.160Z,2.03
2023-10-29T17:42:56.976Z,1.90
2023-10-29T17:47:05.141Z,1.90
2023-10-29T17:51:23.836Z,2.20
2023-10-29T17:55:32.075Z,2.22
2023-10-29T17:59:44.401Z,2.30
2023-10-29T18:03:55.857Z,2.25
2023-10-29T18:08:27.638Z,2.83
2023-10-29T18:12:33.447Z,2.30
2023-10-29T18:16:39.899Z,2.55
2023-10-29T18:20:44.960Z,2.60
2023-10-29T18:24:48.069Z,2.42
2023-10-29T18:28:53.115Z,1.70
2023-10-29T18:33:28.545Z,1.70
2023-10-29T18:37:56.357Z,2.70
2023-10-29T18:42:20.161Z,2.13
2023-10-29T18:46:30.139Z,2.55
2023-10-29T18:50:40.908Z,2.23
2023-10-29T18:55:02.206Z,2.08
2023-10-29T18:59:15.156Z,2.20
2023-10-29T19:03:27.206Z,2.08
2023-10-29T19:07:55.819Z,2.38
2023-10-29T19:12:20.072Z,1.85
2023-10-29T19:16:31.229Z,2.47
2023-10-29T19:20:34.429Z,2.28
2023-10-29T19:24:42.433Z,2.58
2023-10-29T19:28:47.504Z,2.92
2023-10-29T19:32:52.484Z,2.60
2023-10-29T19:36:56.155Z,2.85
2023-10-29T19:40:59.163Z,2.70
2023-10-29T19:45:09.305Z,3.10
2023-10-29T19:49:13.137Z,3.08
2023-10-29T19:53:24.442Z,3.08
2023-10-29T19:57:31.350Z,3.15
2023-10-29T20:01:37.628Z,2.88
2023-10-29T20:05:41.062Z,3.05
2023-10-29T20:09:44.552Z,2.75
2023-10-29T20:13:52.526Z,3.30
2023-10-29T20:18:04.484Z,3.33
2023-10-29T20:22:14.089Z,2.95
2023-10-29T20:31:01.117Z,3.38
2023-10-29T20:35:14.437Z,3.13
2023-10-29T20:39:21.287Z,3.17
2023-10-29T20:43:33.358Z,3.55
2023-10-29T20:47:37.513Z,2.90
2023-10-29T20:51:43.044Z,3.40
2023-10-29T20:55:55.046Z,3.53
2023-10-29T21:00:06.503Z,3.08
2023-10-29T21:04:11.016Z,3.00
2023-10-29T21:08:20.065Z,3.00
2023-10-29T21:12:23.945Z,2.70
2023-10-29T21:16:26.907Z,2.50
2023-10-29T21:20:33.045Z,3.38
2023-10-29T21:24:41.899Z,2.80
2023-10-29T21:28:44.832Z,2.65
2023-10-29T21:32:49.860Z,2.40
2023-10-29T21:36:54.705Z,3.03
2023-10-29T21:41:04.218Z,3.17
2023-10-29T21:45:09.083Z,2.90
2023-10-29T21:49:15.191Z,2.80
2023-10-29T21:53:19.512Z,3.63
2023-10-29T21:57:22.627Z,2.90
2023-10-29T22:01:26.346Z,3.00
2023-10-29T22:05:30.702Z,3.13
2023-10-29T22:09:35.850Z,2.72
2023-10-29T22:13:40.880Z,2.60
2023-10-29T22:17:44.304Z,2.42
2023-10-29T22:21:48.179Z,2.20
2023-10-29T22:25:51.686Z,2.20
2023-10-29T22:29:58.331Z,2.40
2023-10-29T22:34:04.350Z,2.60
2023-10-29T22:38:09.106Z,2.28
2023-10-29T22:42:18.649Z,2.22
2023-10-29T22:46:24.440Z,2.50
2023-10-29T22:50:27.293Z,2.88
2023-10-29T22:54:31.505Z,2.72
2023-10-29T22:58:36.528Z,2.40
2023-10-29T23:02:46.204Z,2.53
2023-10-29T23:06:50.249Z,2.22
2023-10-29T23:10:53.792Z,2.38
2023-10-29T23:14:58.758Z,2.60
2023-10-29T23:19:03.653Z,2.88
2023-10-29T23:23:17.089Z,2.00
2023-10-29T23:27:55.274Z,2.47
2023-10-29T23:32:03.536Z,2.10
2023-10-29T23:36:12.782Z,2.40
2023-10-29T23:40:22.636Z,2.42
2023-10-29T23:44:40.448Z,2.22
2023-10-29T23:48:52.886Z,2.22
2023-10-29T23:52:56.905Z,2.47
2023-10-29T23:57:04.959Z,2.15
